Time;durP1;ratioP1;P1;durP2;ratioP2;P2;SDS_P1;SDS_P2;PMS_P1;PMS_P2;Temp;Humidity;BMP_temperature;BMP_pressure;BME280_temperature;BME280_humidity;BME280_pressure;Samples;Min_cycle;Max_cycle;Signal;HPM_P1;HPM_P2
2021/05/02 00:02:11;;;;;;;14.52;9.00;;;;;;;;;;5071773;28;20048;-59
2021/05/02 00:04:57;;;;;;;18.60;9.20;;;;;;;;;;5071766;28;20060;-58
2021/05/02 00:07:42;;;;;;;14.38;8.15;;;;;;;;;;5071514;28;20490;-58
2021/05/02 00:10:29;;;;;;;13.80;7.93;;;;;;;;;;5069678;28;20049;-59
2021/05/02 00:13:14;;;;;;;19.65;7.57;;;;;;;;;;5071972;28;20059;-58
2021/05/02 00:15:59;;;;;;;11.15;6.88;;;;;;;;;;5071563;28;20044;-58
2021/05/02 00:18:47;;;;;;;16.42;6.72;;;;;;;;;;5070459;28;20047;-59
2021/05/02 00:21:32;;;;;;;9.20;5.60;;;;;;;;;;5072249;28;20410;-61
2021/05/02 00:24:21;;;;;;;8.82;5.68;;;;;;;;;;5068716;28;20044;-61
2021/05/02 00:27:06;;;;;;;14.77;5.63;;;;;;;;;;5072510;28;20186;-61
2021/05/02 00:29:52;;;;;;;10.32;4.60;;;;;;;;;;5071152;28;20063;-61
2021/05/02 00:32:37;;;;;;;12.40;5.35;;;;;;;;;;5072152;28;20498;-61
2021/05/02 00:35:23;;;;;;;9.90;4.80;;;;;;;;;;5069900;28;20068;-61
2021/05/02 00:38:08;;;;;;;14.23;5.28;;;;;;;;;;5071741;28;20145;-61
2021/05/02 00:40:57;;;;;;;15.95;5.82;;;;;;;;;;5070738;28;20127;-61
2021/05/02 00:43:51;;;;;;;9.05;5.70;;;;;;;;;;5071284;28;20055;-61
2021/05/02 00:46:37;;;;;;;14.65;6.10;;;;;;;;;;5069172;28;20041;-61
2021/05/02 00:49:41;;;;;;;10.18;5.07;;;;;;;;;;5071827;28;20067;-61
2021/05/02 00:52:40;;;;;;;16.75;5.60;;;;;;;;;;5072154;28;20056;-61
2021/05/02 00:55:29;;;;;;;11.77;4.80;;;;;;;;;;5069788;28;20063;-61
2021/05/02 00:58:20;;;;;;;9.93;4.72;;;;;;;;;;5071109;28;20056;-61
2021/05/02 01:01:05;;;;;;;11.38;5.35;;;;;;;;;;5071529;28;20140;-61
2021/05/02 01:03:50;;;;;;;11.93;5.30;;;;;;;;;;5070942;28;20072;-59
2021/05/02 01:06:36;;;;;;;10.23;4.68;;;;;;;;;;5069919;28;20076;-58
2021/05/02 01:09:21;;;;;;;10.75;5.32;;;;;;;;;;5071709;28;20053;-62
2021/05/02 01:12:06;;;;;;;13.07;5.53;;;;;;;;;;5070916;28;20391;-58
2021/05/02 01:14:56;;;;;;;12.82;6.38;;;;;;;;;;5070842;28;20547;-58
2021/05/02 01:17:42;;;;;;;11.73;5.82;;;;;;;;;;5069915;28;20049;-61
2021/05/02 01:20:28;;;;;;;10.20;5.93;;;;;;;;;;5071407;28;20044;-62
2021/05/02 01:23:19;;;;;;;18.92;6.40;;;;;;;;;;5071750;28;20054;-62
2021/05/02 01:26:05;;;;;;;11.73;5.80;;;;;;;;;;5068735;28;20044;-63
2021/05/02 01:28:51;;;;;;;11.27;5.55;;;;;;;;;;5071532;28;20494;-63
2021/05/02 01:31:36;;;;;;;13.18;6.38;;;;;;;;;;5074209;28;20053;-62
2021/05/02 01:34:22;;;;;;;12.07;6.20;;;;;;;;;;5034041;28;20063;-62
2021/05/02 01:37:07;;;;;;;13.50;5.85;;;;;;;;;;5040622;28;20082;-63
2021/05/02 01:39:53;;;;;;;12.98;5.60;;;;;;;;;;5095017;22;20075;-58
2021/05/02 01:42:38;;;;;;;10.23;5.40;;;;;;;;;;5055606;28;20047;-61
2021/05/02 01:45:23;;;;;;;11.95;5.63;;;;;;;;;;5055363;28;20045;-60
2021/05/02 01:48:09;;;;;;;12.95;6.10;;;;;;;;;;5053421;28;20427;-60
2021/05/02 01:51:01;;;;;;;14.25;6.10;;;;;;;;;;5040067;28;20411;-60
2021/05/02 01:53:46;;;;;;;12.73;5.93;;;;;;;;;;5055256;28;20049;-61
2021/05/02 01:56:32;;;;;;;15.80;6.22;;;;;;;;;;5055398;28;20143;-59
2021/05/02 01:59:17;;;;;;;11.63;6.05;;;;;;;;;;5053289;28;20505;-59
2021/05/02 02:02:03;;;;;;;13.82;5.88;;;;;;;;;;5040206;28;20179;-61
2021/05/02 02:04:50;;;;;;;12.18;5.45;;;;;;;;;;5040284;28;20127;-60
2021/05/02 02:07:35;;;;;;;10.13;4.43;;;;;;;;;;5038977;28;20496;-59
2021/05/02 02:10:21;;;;;;;12.35;5.35;;;;;;;;;;5053212;28;20175;-63
2021/05/02 02:13:06;;;;;;;18.58;5.57;;;;;;;;;;5054895;28;20053;-61
2021/05/02 02:15:51;;;;;;;9.90;4.70;;;;;;;;;;5039969;28;20052;-61
2021/05/02 02:18:37;;;;;;;13.18;5.50;;;;;;;;;;5053855;28;20045;-63
2021/05/02 02:21:23;;;;;;;9.05;5.22;;;;;;;;;;5053311;28;20152;-61
2021/05/02 02:24:08;;;;;;;9.98;4.85;;;;;;;;;;5054824;28;20068;-61
2021/05/02 02:26:56;;;;;;;9.75;4.00;;;;;;;;;;5039678;28;20453;-63
2021/05/02 02:29:43;;;;;;;7.15;4.13;;;;;;;;;;5037953;28;20053;-63
2021/05/02 02:32:29;;;;;;;5.05;3.45;;;;;;;;;;5054716;28;20071;-62
2021/05/02 02:35:15;;;;;;;9.05;4.18;;;;;;;;;;5054548;28;20045;-64
2021/05/02 02:38:07;;;;;;;6.60;3.35;;;;;;;;;;5053200;28;20041;-61
2021/05/02 02:40:53;;;;;;;7.55;3.33;;;;;;;;;;5053848;28;20051;-61
2021/05/02 02:43:38;;;;;;;7.10;2.67;;;;;;;;;;5053302;28;20156;-62
2021/05/02 02:46:24;;;;;;;11.00;2.88;;;;;;;;;;5038364;28;20041;-61
2021/05/02 02:49:10;;;;;;;5.88;2.53;;;;;;;;;;5052926;28;20057;-62
2021/05/02 02:51:55;;;;;;;11.65;2.95;;;;;;;;;;5054164;28;20072;-62
2021/05/02 02:54:41;;;;;;;12.60;2.92;;;;;;;;;;5039141;28;20060;-61
2021/05/02 02:57:26;;;;;;;8.35;2.72;;;;;;;;;;5038096;28;20503;-61
2021/05/02 03:00:12;;;;;;;5.75;2.72;;;;;;;;;;5053548;28;20049;-61
2021/05/02 03:03:17;;;;;;;6.07;2.33;;;;;;;;;;5053859;28;20060;-61
2021/05/02 03:06:02;;;;;;;7.63;2.40;;;;;;;;;;5039030;28;20053;-60
2021/05/02 03:08:49;;;;;;;6.57;2.40;;;;;;;;;;5052390;28;20056;-63
2021/05/02 03:11:34;;;;;;;7.93;1.77;;;;;;;;;;5052984;28;20119;-63
2021/05/02 03:14:19;;;;;;;5.13;1.80;;;;;;;;;;5038917;28;20092;-61
2021/05/02 03:17:05;;;;;;;5.82;2.10;;;;;;;;;;5053674;28;20079;-62
2021/05/02 03:19:51;;;;;;;7.43;2.40;;;;;;;;;;5038381;28;20037;-63
2021/05/02 03:22:39;;;;;;;4.78;1.63;;;;;;;;;;5053002;28;20140;-61
2021/05/02 03:25:26;;;;;;;7.07;1.98;;;;;;;;;;5053554;28;20052;-62
2021/05/02 03:28:13;;;;;;;4.93;1.70;;;;;;;;;;5053647;28;20072;-62
2021/05/02 03:31:00;;;;;;;8.45;2.25;;;;;;;;;;5053208;28;20053;-61
2021/05/02 03:33:48;;;;;;;6.43;2.33;;;;;;;;;;5053416;28;20049;-61
2021/05/02 03:36:37;;;;;;;5.55;1.77;;;;;;;;;;5053497;28;20133;-62
2021/05/02 03:39:23;;;;;;;9.00;2.15;;;;;;;;;;5036848;28;20045;-61
2021/05/02 03:42:08;;;;;;;5.22;1.90;;;;;;;;;;5053242;28;20106;-61
2021/05/02 03:44:53;;;;;;;8.20;2.10;;;;;;;;;;5053112;28;20502;-61
2021/05/02 03:47:39;;;;;;;4.32;1.73;;;;;;;;;;5053143;28;20049;-62
2021/05/02 03:50:24;;;;;;;4.90;2.70;;;;;;;;;;5052719;28;20132;-61
2021/05/02 03:53:10;;;;;;;8.70;2.28;;;;;;;;;;5051655;28;20052;-61
2021/05/02 03:55:55;;;;;;;4.60;2.45;;;;;;;;;;5052531;28;20056;-62
2021/05/02 03:58:40;;;;;;;6.22;2.28;;;;;;;;;;5052747;28;20500;-61
2021/05/02 04:01:26;;;;;;;4.38;2.30;;;;;;;;;;5052679;28;20053;-61
2021/05/02 04:04:12;;;;;;;8.27;1.67;;;;;;;;;;5050908;28;20056;-62
2021/05/02 04:07:00;;;;;;;6.20;2.25;;;;;;;;;;5052766;28;20053;-61
2021/05/02 04:09:46;;;;;;;8.25;2.15;;;;;;;;;;5052503;28;20051;-62
2021/05/02 04:12:31;;;;;;;4.95;2.00;;;;;;;;;;5051862;28;20049;-60
2021/05/02 04:15:16;;;;;;;3.50;2.20;;;;;;;;;;5031230;28;20053;-61
2021/05/02 04:18:02;;;;;;;3.17;1.98;;;;;;;;;;5032835;28;20065;-61
2021/05/02 04:20:47;;;;;;;5.60;2.17;;;;;;;;;;5032163;28;20041;-61
2021/05/02 04:23:35;;;;;;;6.10;2.20;;;;;;;;;;5037454;28;20049;-62
2021/05/02 04:26:20;;;;;;;5.10;2.60;;;;;;;;;;5052543;28;20041;-61
2021/05/02 04:29:06;;;;;;;3.50;2.03;;;;;;;;;;5052344;28;20052;-62
2021/05/02 04:31:51;;;;;;;3.28;2.28;;;;;;;;;;5052277;28;20041;-62
2021/05/02 04:34:37;;;;;;;7.15;2.60;;;;;;;;;;5050506;28;20144;-59
2021/05/02 04:37:22;;;;;;;7.03;2.50;;;;;;;;;;5051501;28;20072;-59
2021/05/02 04:40:08;;;;;;;7.22;2.45;;;;;;;;;;5051675;28;20487;-60
2021/05/02 04:42:53;;;;;;;7.35;2.42;;;;;;;;;;5052027;28;20143;-59
2021/05/02 04:45:39;;;;;;;5.43;3.03;;;;;;;;;;5052250;28;20049;-61
2021/05/02 04:48:24;;;;;;;5.88;2.65;;;;;;;;;;5051085;28;20033;-61
2021/05/02 04:51:10;;;;;;;7.90;2.90;;;;;;;;;;5051492;28;20231;-62
2021/05/02 04:53:55;;;;;;;6.75;2.92;;;;;;;;;;5052139;28;20083;-62
2021/05/02 04:56:40;;;;;;;8.15;2.75;;;;;;;;;;5051874;28;20506;-61
2021/05/02 04:59:26;;;;;;;4.50;2.75;;;;;;;;;;5051461;28;20071;-61
2021/05/02 05:02:11;;;;;;;6.93;3.13;;;;;;;;;;5051936;28;20401;-63
2021/05/02 05:04:57;;;;;;;6.25;3.00;;;;;;;;;;5050494;28;20041;-62
2021/05/02 05:07:42;;;;;;;8.82;3.03;;;;;;;;;;5051815;28;20442;-61
2021/05/02 05:10:28;;;;;;;6.75;2.90;;;;;;;;;;5051714;28;20060;-63
2021/05/02 05:13:13;;;;;;;4.20;2.85;;;;;;;;;;5050749;28;20041;-59
2021/05/02 05:15:59;;;;;;;6.72;3.00;;;;;;;;;;5051076;28;20127;-61
2021/05/02 05:18:44;;;;;;;6.38;3.08;;;;;;;;;;5051926;28;20045;-61
2021/05/02 05:21:29;;;;;;;6.80;3.03;;;;;;;;;;5045470;28;20519;-60
2021/05/02 05:24:15;;;;;;;5.72;2.90;;;;;;;;;;5049827;28;20402;-62
2021/05/02 05:27:00;;;;;;;5.13;2.45;;;;;;;;;;5050753;28;20045;-61
2021/05/02 05:29:46;;;;;;;5.63;2.53;;;;;;;;;;5051494;28;20049;-62
2021/05/02 05:32:32;;;;;;;8.32;2.58;;;;;;;;;;5051686;28;20052;-61
2021/05/02 05:35:17;;;;;;;7.10;3.08;;;;;;;;;;5050404;28;20049;-61
2021/05/02 05:38:02;;;;;;;6.75;2.85;;;;;;;;;;5050825;28;20548;-61
2021/05/02 05:40:48;;;;;;;5.75;2.38;;;;;;;;;;5051034;28;20048;-63
2021/05/02 05:43:33;;;;;;;8.13;2.42;;;;;;;;;;5051703;28;20054;-61
2021/05/02 05:46:18;;;;;;;9.50;2.28;;;;;;;;;;5048979;28;20043;-60
2021/05/02 05:49:04;;;;;;;5.57;3.60;;;;;;;;;;5049742;28;20045;-63
2021/05/02 05:51:53;;;;;;;7.80;2.97;;;;;;;;;;5050196;28;20087;-62
2021/05/02 05:54:38;;;;;;;5.72;2.35;;;;;;;;;;5051522;28;20053;-59
2021/05/02 05:57:23;;;;;;;8.57;2.80;;;;;;;;;;5050044;28;20076;-62
2021/05/02 06:00:09;;;;;;;4.20;2.75;;;;;;;;;;5051100;28;20127;-61
2021/05/02 06:03:01;;;;;;;4.40;2.72;;;;;;;;;;5036299;28;20052;-61
2021/05/02 06:05:46;;;;;;;5.07;2.30;;;;;;;;;;5050457;28;20124;-61
2021/05/02 06:08:32;;;;;;;7.95;2.38;;;;;;;;;;5050066;28;20044;-62
2021/05/02 06:11:17;;;;;;;6.65;2.58;;;;;;;;;;5051001;28;20049;-62
2021/05/02 06:14:03;;;;;;;5.72;1.90;;;;;;;;;;5051322;28;20430;-61
2021/05/02 06:16:48;;;;;;;3.70;2.05;;;;;;;;;;5046781;28;20056;-63
2021/05/02 06:19:34;;;;;;;4.78;1.83;;;;;;;;;;5043039;28;20495;-62
2021/05/02 06:22:19;;;;;;;5.90;1.85;;;;;;;;;;5043101;28;20049;-61
2021/05/02 06:25:07;;;;;;;7.38;2.40;;;;;;;;;;5029579;28;20442;-59
2021/05/02 06:27:52;;;;;;;2.95;1.92;;;;;;;;;;5050324;28;20052;-62
2021/05/02 06:30:38;;;;;;;4.55;1.90;;;;;;;;;;5055454;28;20049;-62
2021/05/02 06:33:23;;;;;;;5.63;2.97;;;;;;;;;;5055278;28;20546;-62
2021/05/02 06:36:09;;;;;;;4.75;1.52;;;;;;;;;;5073879;28;20049;-64
2021/05/02 06:38:54;;;;;;;4.03;2.28;;;;;;;;;;5072804;28;20044;-63
2021/05/02 06:41:44;;;;;;;6.05;2.40;;;;;;;;;;5073954;28;20179;-64
2021/05/02 06:44:29;;;;;;;3.78;2.50;;;;;;;;;;5062768;28;20047;-63
2021/05/02 06:47:15;;;;;;;4.68;2.78;;;;;;;;;;5045501;28;20127;-61
2021/05/02 06:50:00;;;;;;;5.40;2.97;;;;;;;;;;5046188;28;20041;-63
2021/05/02 06:52:45;;;;;;;7.43;2.70;;;;;;;;;;5037981;28;20065;-62
2021/05/02 06:55:31;;;;;;;4.85;2.50;;;;;;;;;;5048851;28;20041;-63
2021/05/02 06:58:16;;;;;;;7.20;2.90;;;;;;;;;;5053934;28;20041;-62
2021/05/02 07:01:02;;;;;;;5.80;2.80;;;;;;;;;;5047408;28;20446;-61
2021/05/02 07:03:47;;;;;;;5.88;3.17;;;;;;;;;;5045755;28;20045;-62
2021/05/02 07:06:33;;;;;;;5.38;3.20;;;;;;;;;;5048542;28;20053;-62
2021/05/02 07:09:19;;;;;;;6.00;3.08;;;;;;;;;;5044721;28;20053;-62
2021/05/02 07:12:04;;;;;;;5.78;3.17;;;;;;;;;;5050180;28;20477;-61
2021/05/02 07:14:49;;;;;;;8.13;3.00;;;;;;;;;;5052879;28;20045;-62
2021/05/02 07:17:34;;;;;;;6.90;3.05;;;;;;;;;;5052876;28;20525;-62
2021/05/02 07:20:21;;;;;;;5.53;2.80;;;;;;;;;;5036059;28;20494;-63
2021/05/02 07:23:07;;;;;;;5.47;2.70;;;;;;;;;;5052943;28;20502;-63
2021/05/02 07:25:52;;;;;;;7.82;2.70;;;;;;;;;;5053745;28;20044;-63
2021/05/02 07:28:37;;;;;;;6.85;2.45;;;;;;;;;;5053335;28;20045;-63
2021/05/02 07:31:23;;;;;;;3.35;1.85;;;;;;;;;;5051477;28;20041;-62
2021/05/02 07:34:08;;;;;;;9.38;2.35;;;;;;;;;;5053008;28;20506;-63
2021/05/02 07:36:57;;;;;;;7.47;2.60;;;;;;;;;;5053246;28;20068;-63
2021/05/02 07:39:42;;;;;;;3.22;2.13;;;;;;;;;;5053303;28;20135;-62
2021/05/02 07:42:28;;;;;;;4.90;1.70;;;;;;;;;;5053343;28;20048;-62
2021/05/02 07:45:13;;;;;;;7.60;2.25;;;;;;;;;;5051295;28;20045;-62
2021/05/02 07:47:59;;;;;;;8.55;2.40;;;;;;;;;;5033515;28;20116;-63
2021/05/02 07:50:44;;;;;;;5.38;1.92;;;;;;;;;;5038553;28;20487;-64
2021/05/02 07:53:29;;;;;;;3.20;1.60;;;;;;;;;;5043564;28;20038;-61
2021/05/02 07:56:15;;;;;;;3.90;1.90;;;;;;;;;;5033037;28;20041;-64
2021/05/02 07:59:00;;;;;;;6.55;2.97;;;;;;;;;;5032987;28;20037;-63
2021/05/02 08:01:45;;;;;;;5.60;1.63;;;;;;;;;;5043738;28;20049;-62
2021/05/02 08:04:31;;;;;;;4.82;2.00;;;;;;;;;;5052338;28;20515;-63
2021/05/02 08:07:16;;;;;;;6.45;1.85;;;;;;;;;;5052900;28;20432;-64
2021/05/02 08:10:01;;;;;;;3.28;1.92;;;;;;;;;;5052496;28;20053;-61
2021/05/02 08:12:47;;;;;;;2.28;1.27;;;;;;;;;;5050852;28;20041;-61
2021/05/02 08:15:32;;;;;;;4.78;1.65;;;;;;;;;;5052717;28;20073;-63
2021/05/02 08:18:17;;;;;;;5.30;1.42;;;;;;;;;;5052597;28;20041;-63
2021/05/02 08:21:06;;;;;;;4.30;2.25;;;;;;;;;;5036024;28;20124;-62
2021/05/02 08:23:52;;;;;;;3.35;1.60;;;;;;;;;;5052106;28;20049;-63
2021/05/02 08:26:37;;;;;;;5.13;1.65;;;;;;;;;;5037506;28;20048;-61
2021/05/02 08:29:22;;;;;;;4.78;2.03;;;;;;;;;;5052200;28;20144;-62
2021/05/02 08:32:08;;;;;;;5.78;1.60;;;;;;;;;;5051264;28;20483;-61
2021/05/02 08:34:53;;;;;;;8.07;1.45;;;;;;;;;;5051116;28;20478;-61
2021/05/02 08:37:39;;;;;;;4.07;1.05;;;;;;;;;;5052277;28;20045;-63
2021/05/02 08:40:24;;;;;;;4.55;1.00;;;;;;;;;;5051062;28;20041;-62
2021/05/02 08:43:10;;;;;;;3.75;1.38;;;;;;;;;;5051165;28;20041;-60
2021/05/02 08:45:55;;;;;;;4.13;1.13;;;;;;;;;;5035677;28;20040;-62
2021/05/02 08:48:40;;;;;;;4.22;1.52;;;;;;;;;;5052025;28;20500;-61
2021/05/02 08:51:25;;;;;;;3.80;1.70;;;;;;;;;;5049503;28;20052;-60
2021/05/02 08:54:11;;;;;;;4.20;1.40;;;;;;;;;;5051678;28;20069;-63
2021/05/02 08:56:56;;;;;;;3.13;1.50;;;;;;;;;;5051924;28;20052;-61
2021/05/02 08:59:41;;;;;;;4.65;1.40;;;;;;;;;;5050450;28;20076;-62
2021/05/02 09:02:27;;;;;;;4.30;1.17;;;;;;;;;;5037070;28;20045;-62
2021/05/02 09:05:13;;;;;;;6.28;1.60;;;;;;;;;;5051769;28;20052;-61
2021/05/02 09:07:58;;;;;;;3.83;1.10;;;;;;;;;;5052059;28;20049;-62
2021/05/02 09:10:43;;;;;;;4.45;1.25;;;;;;;;;;5051462;28;20045;-63
2021/05/02 09:13:29;;;;;;;4.43;1.00;;;;;;;;;;5035971;28;20483;-60
2021/05/02 09:16:15;;;;;;;1.60;1.20;;;;;;;;;;5051358;28;20499;-62
2021/05/02 09:19:00;;;;;;;4.93;1.13;;;;;;;;;;5051820;28;20061;-62
2021/05/02 09:21:46;;;;;;;6.07;1.88;;;;;;;;;;5036278;28;20045;-62
2021/05/02 09:24:33;;;;;;;4.30;1.48;;;;;;;;;;5051698;28;20049;-62
2021/05/02 09:27:18;;;;;;;4.93;1.42;;;;;;;;;;5050962;28;20041;-61
2021/05/02 09:30:13;;;;;;;3.78;1.00;;;;;;;;;;5051225;28;20044;-62
2021/05/02 09:32:58;;;;;;;2.65;1.20;;;;;;;;;;5051733;28;20048;-62
2021/05/02 09:35:50;;;;;;;4.63;1.00;;;;;;;;;;5051594;28;20049;-62
2021/05/02 09:38:36;;;;;;;3.67;0.90;;;;;;;;;;5051461;28;20049;-62
2021/05/02 09:41:21;;;;;;;4.00;1.27;;;;;;;;;;5051004;28;20045;-62
2021/05/02 09:44:06;;;;;;;4.30;1.27;;;;;;;;;;5049875;28;20112;-62
2021/05/02 09:46:51;;;;;;;5.40;1.23;;;;;;;;;;5050289;28;20147;-62
2021/05/02 09:49:37;;;;;;;3.55;1.13;;;;;;;;;;5051162;28;20052;-62
2021/05/02 09:52:39;;;;;;;3.95;1.48;;;;;;;;;;5052130;28;20049;-62
2021/05/02 09:55:28;;;;;;;4.32;1.35;;;;;;;;;;5053357;28;20040;-61
2021/05/02 09:58:25;;;;;;;2.58;1.13;;;;;;;;;;5053575;28;20049;-61
2021/05/02 10:01:10;;;;;;;4.18;0.77;;;;;;;;;;5053438;28;20037;-62
2021/05/02 10:03:56;;;;;;;3.13;1.17;;;;;;;;;;5039987;28;20136;-62
2021/05/02 10:06:41;;;;;;;2.03;1.17;;;;;;;;;;5053923;28;20041;-62
2021/05/02 10:09:26;;;;;;;5.18;1.60;;;;;;;;;;5038473;28;20049;-62
2021/05/02 10:12:11;;;;;;;5.07;1.50;;;;;;;;;;5054778;28;20466;-62
2021/05/02 10:14:56;;;;;;;4.03;1.25;;;;;;;;;;5054967;28;20132;-62
2021/05/02 10:17:42;;;;;;;9.30;2.08;;;;;;;;;;5053423;28;20499;-62
2021/05/02 10:20:27;;;;;;;3.20;1.05;;;;;;;;;;5053400;28;20092;-61
2021/05/02 10:23:13;;;;;;;2.55;0.82;;;;;;;;;;5054776;28;20045;-62
2021/05/02 10:25:59;;;;;;;1.75;0.73;;;;;;;;;;5054623;28;20115;-61
2021/05/02 10:28:44;;;;;;;3.30;0.85;;;;;;;;;;5039594;28;20045;-62
2021/05/02 10:31:29;;;;;;;3.38;1.00;;;;;;;;;;5038360;28;20243;-61
2021/05/02 10:34:27;;;;;;;3.80;1.70;;;;;;;;;;5039567;28;20041;-61
2021/05/02 10:37:26;;;;;;;2.80;1.00;;;;;;;;;;5054185;28;20048;-61
2021/05/02 10:40:20;;;;;;;1.55;0.60;;;;;;;;;;5053605;28;20041;-62
2021/05/02 10:43:08;;;;;;;3.30;1.20;;;;;;;;;;5053043;28;20049;-62
2021/05/02 10:45:54;;;;;;;5.13;1.40;;;;;;;;;;5053620;28;20525;-62
2021/05/02 10:48:45;;;;;;;5.03;1.23;;;;;;;;;;5054276;28;20044;-61
2021/05/02 10:51:31;;;;;;;5.38;1.00;;;;;;;;;;5050650;28;20048;-62
2021/05/02 10:54:37;;;;;;;4.38;0.88;;;;;;;;;;5053790;28;20107;-63
2021/05/02 10:57:38;;;;;;;3.83;1.40;;;;;;;;;;5049982;28;20266;-62
2021/05/02 11:00:23;;;;;;;2.58;0.90;;;;;;;;;;5053434;28;20495;-62
2021/05/02 11:03:08;;;;;;;3.00;0.90;;;;;;;;;;5038678;28;20053;-62
2021/05/02 11:05:55;;;;;;;2.95;0.80;;;;;;;;;;5052942;28;20453;-62
2021/05/02 11:08:47;;;;;;;3.55;0.90;;;;;;;;;;5054051;28;20056;-61
2021/05/02 11:11:39;;;;;;;3.78;0.80;;;;;;;;;;5053621;28;20132;-61
2021/05/02 11:14:27;;;;;;;3.53;1.23;;;;;;;;;;5038645;28;20083;-61
2021/05/02 11:17:15;;;;;;;3.45;1.30;;;;;;;;;;5053789;28;20052;-61
2021/05/02 11:20:00;;;;;;;2.08;0.90;;;;;;;;;;5053425;28;20049;-61
2021/05/02 11:22:48;;;;;;;4.70;1.30;;;;;;;;;;5053435;28;20567;-61
2021/05/02 11:25:43;;;;;;;3.35;1.02;;;;;;;;;;5052662;28;20484;-61
2021/05/02 11:28:56;;;;;;;3.65;1.15;;;;;;;;;;5052366;28;20045;-62
2021/05/02 11:31:44;;;;;;;2.42;1.15;;;;;;;;;;5053227;28;20041;-61
2021/05/02 11:34:49;;;;;;;3.67;1.00;;;;;;;;;;5053381;28;20045;-62
2021/05/02 11:37:47;;;;;;;5.85;1.25;;;;;;;;;;5052358;28;20407;-61
2021/05/02 11:40:33;;;;;;;1.88;0.93;;;;;;;;;;5052842;28;20491;-61
2021/05/02 11:43:25;;;;;;;1.92;1.17;;;;;;;;;;5053123;28;20045;-61
2021/05/02 11:46:17;;;;;;;2.17;0.98;;;;;;;;;;5052274;28;20128;-62
2021/05/02 11:49:02;;;;;;;2.00;0.90;;;;;;;;;;5038062;28;20123;-61
2021/05/02 11:51:59;;;;;;;5.95;1.13;;;;;;;;;;5052882;28;20487;-62
2021/05/02 11:54:47;;;;;;;5.30;1.52;;;;;;;;;;5053043;28;20048;-61
2021/05/02 11:57:42;;;;;;;4.05;1.52;;;;;;;;;;5036866;28;20197;-62
2021/05/02 12:00:41;;;;;;;3.13;1.33;;;;;;;;;;5051826;28;20411;-62
2021/05/02 12:03:36;;;;;;;4.63;1.35;;;;;;;;;;5052784;28;20120;-62
2021/05/02 12:06:22;;;;;;;3.63;0.80;;;;;;;;;;5052771;28;20049;-62
2021/05/02 12:09:13;;;;;;;2.42;0.80;;;;;;;;;;5052816;28;20048;-62
2021/05/02 12:12:01;;;;;;;6.50;0.82;;;;;;;;;;5052990;28;20045;-62
2021/05/02 12:14:46;;;;;;;2.25;0.90;;;;;;;;;;5051852;28;20053;-62
2021/05/02 12:17:32;;;;;;;3.58;0.80;;;;;;;;;;5051673;28;20049;-61
2021/05/02 12:20:24;;;;;;;1.27;0.80;;;;;;;;;;5050674;28;20504;-63
2021/05/02 12:23:09;;;;;;;2.42;1.35;;;;;;;;;;5052287;28;20131;-63
2021/05/02 12:25:54;;;;;;;5.32;1.38;;;;;;;;;;5052543;28;20049;-64
2021/05/02 12:28:40;;;;;;;3.72;1.35;;;;;;;;;;5051618;28;20132;-62
2021/05/02 12:31:25;;;;;;;2.67;1.33;;;;;;;;;;5051952;28;20052;-63
2021/05/02 12:34:10;;;;;;;2.78;1.08;;;;;;;;;;5037255;28;20496;-62
2021/05/02 12:36:57;;;;;;;1.50;1.23;;;;;;;;;;5037397;28;20057;-62
2021/05/02 12:39:42;;;;;;;3.65;1.23;;;;;;;;;;5050910;28;20040;-61
2021/05/02 12:42:31;;;;;;;1.33;1.00;;;;;;;;;;5052172;28;20081;-62
2021/05/02 12:45:16;;;;;;;2.55;1.20;;;;;;;;;;5052119;28;20423;-62
2021/05/02 12:48:01;;;;;;;2.55;0.90;;;;;;;;;;5052076;28;20067;-62
2021/05/02 12:50:46;;;;;;;3.63;1.38;;;;;;;;;;5032025;28;20046;-62
2021/05/02 12:53:41;;;;;;;2.20;0.98;;;;;;;;;;5032502;28;20080;-63
2021/05/02 12:56:27;;;;;;;2.60;1.15;;;;;;;;;;5032061;28;20470;-62
2021/05/02 12:59:38;;;;;;;1.83;0.88;;;;;;;;;;5032081;28;20045;-63
2021/05/02 13:02:28;;;;;;;4.03;1.05;;;;;;;;;;5048232;28;20510;-62
2021/05/02 13:05:14;;;;;;;4.75;1.02;;;;;;;;;;5052036;28;20048;-62
2021/05/02 13:07:59;;;;;;;4.43;1.00;;;;;;;;;;5051650;28;20041;-61
2021/05/02 13:10:45;;;;;;;3.45;0.90;;;;;;;;;;5036297;28;20555;-62
2021/05/02 13:13:30;;;;;;;3.20;0.90;;;;;;;;;;5051984;28;20053;-62
2021/05/02 13:16:15;;;;;;;3.13;1.08;;;;;;;;;;5050184;28;20049;-62
2021/05/02 13:19:00;;;;;;;4.15;1.17;;;;;;;;;;5026498;28;20573;-63
2021/05/02 13:21:45;;;;;;;2.53;1.05;;;;;;;;;;5039354;28;20096;-62
2021/05/02 13:24:30;;;;;;;2.65;0.90;;;;;;;;;;5061551;28;20060;-63
2021/05/02 13:27:31;;;;;;;5.43;1.48;;;;;;;;;;5055897;28;20040;-62
2021/05/02 13:30:28;;;;;;;4.18;1.17;;;;;;;;;;5060544;28;20040;-63
2021/05/02 13:33:15;;;;;;;5.28;1.52;;;;;;;;;;5060505;28;20053;-61
2021/05/02 13:36:00;;;;;;;2.95;0.98;;;;;;;;;;5042456;28;20049;-63
2021/05/02 13:38:46;;;;;;;6.10;2.08;;;;;;;;;;5037631;28;20040;-62
2021/05/02 13:41:31;;;;;;;3.92;1.70;;;;;;;;;;5045086;28;20604;-62
2021/05/02 13:44:17;;;;;;;2.78;1.13;;;;;;;;;;5060562;28;20045;-61
2021/05/02 13:47:02;;;;;;;4.72;1.20;;;;;;;;;;5059730;28;20734;-62
2021/05/02 13:49:47;;;;;;;5.68;1.35;;;;;;;;;;5062543;28;20053;-62
2021/05/02 13:52:33;;;;;;;4.72;1.27;;;;;;;;;;5065265;28;20053;-63
2021/05/02 13:55:18;;;;;;;3.30;1.10;;;;;;;;;;5069272;22;20041;-59
2021/05/02 13:58:04;;;;;;;2.00;0.82;;;;;;;;;;5046408;28;20508;-61
2021/05/02 14:00:49;;;;;;;4.10;0.80;;;;;;;;;;5051544;28;20044;-61
2021/05/02 14:03:34;;;;;;;2.28;0.95;;;;;;;;;;5054678;28;20052;-60
2021/05/02 14:06:19;;;;;;;3.60;1.23;;;;;;;;;;5054574;28;20060;-61
2021/05/02 14:09:05;;;;;;;4.20;0.90;;;;;;;;;;5051809;28;20049;-62
2021/05/02 14:11:50;;;;;;;6.30;1.20;;;;;;;;;;5054878;28;20048;-59
2021/05/02 14:14:36;;;;;;;3.95;1.00;;;;;;;;;;5054410;28;20041;-61
2021/05/02 14:17:24;;;;;;;3.63;1.13;;;;;;;;;;5052222;28;20045;-61
2021/05/02 14:20:09;;;;;;;2.20;0.95;;;;;;;;;;5053844;28;20068;-62
2021/05/02 14:22:55;;;;;;;3.40;1.10;;;;;;;;;;5054420;28;20053;-58
2021/05/02 14:25:41;;;;;;;3.47;1.05;;;;;;;;;;5054600;28;20049;-58
2021/05/02 14:28:26;;;;;;;1.98;0.80;;;;;;;;;;5051568;28;20048;-62
2021/05/02 14:31:11;;;;;;;1.60;0.80;;;;;;;;;;5052956;28;20045;-60
2021/05/02 14:33:57;;;;;;;1.27;0.50;;;;;;;;;;5053781;28;20053;-62
2021/05/02 14:36:58;;;;;;;1.80;0.93;;;;;;;;;;5054157;28;20053;-61
2021/05/02 14:39:44;;;;;;;3.03;0.50;;;;;;;;;;5050811;28;20045;-60
2021/05/02 14:42:29;;;;;;;3.65;1.00;;;;;;;;;;5054020;28;20457;-59
2021/05/02 14:45:15;;;;;;;1.00;0.77;;;;;;;;;;5054185;28;20044;-62
2021/05/02 14:48:00;;;;;;;5.45;0.70;;;;;;;;;;5054095;28;20508;-62
2021/05/02 14:50:45;;;;;;;3.22;0.90;;;;;;;;;;5051644;28;20461;-61
2021/05/02 14:53:31;;;;;;;2.13;0.50;;;;;;;;;;5053791;28;20144;-62
2021/05/02 14:56:16;;;;;;;1.17;0.60;;;;;;;;;;5053910;28;20045;-61
2021/05/02 14:59:02;;;;;;;2.45;0.73;;;;;;;;;;5051085;28;20048;-62
2021/05/02 15:01:47;;;;;;;1.52;0.63;;;;;;;;;;5053722;28;20041;-61
2021/05/02 15:04:33;;;;;;;5.13;0.93;;;;;;;;;;5053221;28;20045;-61
2021/05/02 15:07:18;;;;;;;3.20;0.85;;;;;;;;;;5053845;28;20095;-61
2021/05/02 15:10:05;;;;;;;4.18;1.05;;;;;;;;;;5051463;28;20534;-62
2021/05/02 15:12:50;;;;;;;4.88;1.23;;;;;;;;;;5053129;28;20044;-62
2021/05/02 15:15:36;;;;;;;3.97;1.15;;;;;;;;;;5053471;28;20124;-61
2021/05/02 15:18:22;;;;;;;3.40;0.70;;;;;;;;;;5052705;28;20514;-61
2021/05/02 15:21:07;;;;;;;1.63;1.00;;;;;;;;;;5052744;28;20124;-61
2021/05/02 15:23:53;;;;;;;1.67;0.70;;;;;;;;;;5069303;28;20434;-62
2021/05/02 15:26:38;;;;;;;1.08;0.70;;;;;;;;;;5060650;28;20048;-61
2021/05/02 15:29:24;;;;;;;2.00;0.70;;;;;;;;;;5044058;28;20072;-61
2021/05/02 15:32:09;;;;;;;1.08;0.70;;;;;;;;;;5048277;28;20040;-61
2021/05/02 15:34:54;;;;;;;3.22;0.85;;;;;;;;;;5061649;28;20040;-61
2021/05/02 15:37:40;;;;;;;2.47;0.85;;;;;;;;;;5069049;28;20045;-61
2021/05/02 15:40:26;;;;;;;3.50;1.52;;;;;;;;;;5044841;28;20044;-62
2021/05/02 15:43:11;;;;;;;5.68;1.05;;;;;;;;;;5063808;28;20049;-61
2021/05/02 15:45:56;;;;;;;3.47;0.70;;;;;;;;;;5055812;28;20049;-61
2021/05/02 15:48:42;;;;;;;3.72;0.63;;;;;;;;;;5063704;28;20044;-61
2021/05/02 15:51:27;;;;;;;3.80;0.90;;;;;;;;;;5064100;28;20045;-61
2021/05/02 15:54:12;;;;;;;2.95;1.10;;;;;;;;;;5056029;28;20040;-61
2021/05/02 15:56:58;;;;;;;4.38;1.10;;;;;;;;;;5061881;28;20053;-61
2021/05/02 15:59:43;;;;;;;3.03;1.10;;;;;;;;;;5068482;28;20048;-61
2021/05/02 16:02:29;;;;;;;2.92;0.80;;;;;;;;;;5051491;28;20041;-62
2021/05/02 16:05:14;;;;;;;2.67;0.90;;;;;;;;;;5051020;28;20041;-62
2021/05/02 16:08:00;;;;;;;1.17;0.70;;;;;;;;;;5039366;28;20491;-63
2021/05/02 16:10:46;;;;;;;2.83;0.80;;;;;;;;;;5046374;28;20514;-62
2021/05/02 16:13:31;;;;;;;1.65;0.70;;;;;;;;;;5035835;28;20124;-62
2021/05/02 16:16:18;;;;;;;1.95;0.70;;;;;;;;;;5050521;28;20124;-62
2021/05/02 16:19:05;;;;;;;2.42;0.93;;;;;;;;;;5052631;28;20057;-63
2021/05/02 16:21:51;;;;;;;2.13;0.82;;;;;;;;;;5050547;28;20041;-62
2021/05/02 16:24:36;;;;;;;2.05;0.60;;;;;;;;;;5052287;28;20048;-61
2021/05/02 16:27:22;;;;;;;2.28;0.70;;;;;;;;;;5052548;28;20096;-63
2021/05/02 16:30:09;;;;;;;1.73;0.90;;;;;;;;;;5052242;28;20045;-62
2021/05/02 16:32:54;;;;;;;1.58;0.60;;;;;;;;;;5049688;28;20131;-62
2021/05/02 16:35:41;;;;;;;2.33;0.80;;;;;;;;;;5052108;28;20515;-62
2021/05/02 16:38:26;;;;;;;1.95;0.60;;;;;;;;;;5052354;28;20053;-62